Aérodrome :
LOGIN :

S'inscrire | Disclaimer

   EN    FR    IT 

 










Légende :    VFR   VFR Marginal   IFR   IFR Intensif   IFR Très Intensif
Visi : 
Plafond : 
>= 8 km
>= 3000ft
5 à 8 km
1000 à 3000 ft
1500m à 5 km
500 à 1000 ft
800 à 1500m
200 à 500 ft
< 800m
< 200 ft
Symboles :   Orages  Brouillard  Fortes neiges  Fortes précipitations  Vent > 20 kt
SIGMETs :   Divers  Orages  Givrage  Turbulence  Onde Orograph.  Cendres Volcan.







- Altitude de l'aérodrome : 788 ft
- Code IATA : DCM
- Voir les cartes d'approche


LFCK - Castres-Mazamet

DERNIER METAR :
  • 180530Z AUTO 11028KT CAVOK 09/02 Q1013 BECMG 11025G35KT

METARs EXPIRÉS :
  • 180500Z AUTO 12030G42KT CAVOK 09/03 Q1013
  • 180430Z AUTO 12028KT CAVOK 08/03 Q1013
  • 180400Z AUTO 12030KT CAVOK 08/03 Q1014
  • 180330Z AUTO 11025KT CAVOK 08/04 Q1014
  • 180300Z AUTO 11020G31KT CAVOK 08/04 Q1015

TAF TAF LFCK
Valide du 18 à 06h jusqu'au 18 à 15h UTC


180500Z 1806/1815 11025G35KT CAVOK
Pas de NOTAMs connus pour ce terrain.



MET'MAP, la Météo Aéronautique d'un coup d'oeil ! - Copyright ORBIFLY Décembre 2007 - Disclaimer

ORBIFLY MET'MAP TEAM :

Programmation & Développement : Alexandra Zaïnal
Conception & Développement : Baudouin d'Aumeries
Co-Programmation & Développement : Marc-Olivier Méhu
Soutien technique & logistique : Manuel Goepfert

Contact : metmap@orbifly.com




SOURCES & CREDITS :

   NOAA